sensor_id;sensor_type;location;lat;lon;timestamp;P1;durP1;ratioP1;P2;durP2;ratioP2
70199;SDS011;57587;55.688;37.600;2023-12-07T00:00:06;24.95;;;11.35;;
70199;SDS011;57587;55.688;37.600;2023-12-07T00:02:33;29.98;;;13.15;;
70199;SDS011;57587;55.688;37.600;2023-12-07T00:05:00;29.13;;;14.47;;
70199;SDS011;57587;55.688;37.600;2023-12-07T00:07:30;28.80;;;12.73;;
70199;SDS011;57587;55.688;37.600;2023-12-07T00:09:57;25.95;;;12.98;;
70199;SDS011;57587;55.688;37.600;2023-12-07T00:12:24;27.00;;;14.55;;
70199;SDS011;57587;55.688;37.600;2023-12-07T00:14:52;26.00;;;11.90;;
70199;SDS011;57587;55.688;37.600;2023-12-07T00:17:19;26.97;;;12.73;;
70199;SDS011;57587;55.688;37.600;2023-12-07T00:19:46;24.73;;;11.05;;
70199;SDS011;57587;55.688;37.600;2023-12-07T00:22:13;23.52;;;12.32;;
70199;SDS011;57587;55.688;37.600;2023-12-07T00:24:41;23.50;;;11.07;;
70199;SDS011;57587;55.688;37.600;2023-12-07T00:27:08;22.40;;;12.23;;
70199;SDS011;57587;55.688;37.600;2023-12-07T00:29:36;28.83;;;13.90;;
70199;SDS011;57587;55.688;37.600;2023-12-07T00:32:04;29.08;;;12.95;;
70199;SDS011;57587;55.688;37.600;2023-12-07T00:34:32;31.00;;;14.38;;
70199;SDS011;57587;55.688;37.600;2023-12-07T00:36:59;24.27;;;12.43;;
70199;SDS011;57587;55.688;37.600;2023-12-07T00:39:26;20.98;;;12.55;;
70199;SDS011;57587;55.688;37.600;2023-12-07T00:41:53;27.07;;;12.83;;
70199;SDS011;57587;55.688;37.600;2023-12-07T00:44:20;25.13;;;12.32;;
70199;SDS011;57587;55.688;37.600;2023-12-07T00:46:48;27.48;;;11.82;;
70199;SDS011;57587;55.688;37.600;2023-12-07T00:49:16;30.27;;;12.27;;
70199;SDS011;57587;55.688;37.600;2023-12-07T00:51:43;28.05;;;12.30;;
70199;SDS011;57587;55.688;37.600;2023-12-07T00:54:10;26.47;;;13.57;;
70199;SDS011;57587;55.688;37.600;2023-12-07T00:56:37;25.55;;;13.63;;
70199;SDS011;57587;55.688;37.600;2023-12-07T00:59:04;31.70;;;12.73;;
70199;SDS011;57587;55.688;37.600;2023-12-07T01:01:32;22.70;;;11.57;;
70199;SDS011;57587;55.688;37.600;2023-12-07T01:03:59;25.20;;;12.75;;
70199;SDS011;57587;55.688;37.600;2023-12-07T01:06:26;32.33;;;12.57;;
70199;SDS011;57587;55.688;37.600;2023-12-07T01:08:53;28.02;;;13.65;;
70199;SDS011;57587;55.688;37.600;2023-12-07T01:11:21;31.38;;;12.60;;
70199;SDS011;57587;55.688;37.600;2023-12-07T01:13:49;22.83;;;11.70;;
70199;SDS011;57587;55.688;37.600;2023-12-07T01:16:17;29.05;;;13.63;;
70199;SDS011;57587;55.688;37.600;2023-12-07T01:18:45;24.57;;;12.80;;
70199;SDS011;57587;55.688;37.600;2023-12-07T01:21:12;30.58;;;13.85;;
70199;SDS011;57587;55.688;37.600;2023-12-07T01:23:39;25.70;;;12.35;;
70199;SDS011;57587;55.688;37.600;2023-12-07T01:26:07;25.27;;;12.00;;
70199;SDS011;57587;55.688;37.600;2023-12-07T01:28:34;28.30;;;12.38;;
70199;SDS011;57587;55.688;37.600;2023-12-07T01:31:01;24.83;;;12.50;;
70199;SDS011;57587;55.688;37.600;2023-12-07T01:33:29;26.20;;;12.65;;
70199;SDS011;57587;55.688;37.600;2023-12-07T01:35:56;26.77;;;12.88;;
70199;SDS011;57587;55.688;37.600;2023-12-07T01:38:23;30.42;;;12.73;;
70199;SDS011;57587;55.688;37.600;2023-12-07T01:40:51;34.47;;;13.55;;
70199;SDS011;57587;55.688;37.600;2023-12-07T01:43:18;26.13;;;13.30;;
70199;SDS011;57587;55.688;37.600;2023-12-07T01:45:47;26.83;;;12.18;;
70199;SDS011;57587;55.688;37.600;2023-12-07T01:48:16;27.33;;;12.63;;
70199;SDS011;57587;55.688;37.600;2023-12-07T01:50:43;31.92;;;12.55;;
70199;SDS011;57587;55.688;37.600;2023-12-07T01:53:10;23.70;;;12.98;;
70199;SDS011;57587;55.688;37.600;2023-12-07T01:55:39;19.67;;;11.80;;
70199;SDS011;57587;55.688;37.600;2023-12-07T01:58:06;23.15;;;13.07;;
70199;SDS011;57587;55.688;37.600;2023-12-07T02:00:34;24.75;;;13.13;;
70199;SDS011;57587;55.688;37.600;2023-12-07T02:03:04;24.55;;;12.10;;
70199;SDS011;57587;55.688;37.600;2023-12-07T02:05:32;23.50;;;12.32;;
70199;SDS011;57587;55.688;37.600;2023-12-07T02:08:00;28.37;;;12.87;;
70199;SDS011;57587;55.688;37.600;2023-12-07T02:10:27;29.17;;;11.98;;
70199;SDS011;57587;55.688;37.600;2023-12-07T02:12:54;27.60;;;12.00;;
70199;SDS011;57587;55.688;37.600;2023-12-07T02:15:22;21.50;;;10.32;;
70199;SDS011;57587;55.688;37.600;2023-12-07T02:20:44;22.97;;;11.27;;
70199;SDS011;57587;55.688;37.600;2023-12-07T02:23:18;21.63;;;10.60;;
70199;SDS011;57587;55.688;37.600;2023-12-07T02:26:02;24.92;;;11.88;;
70199;SDS011;57587;55.688;37.600;2023-12-07T02:28:32;22.25;;;11.57;;
70199;SDS011;57587;55.688;37.600;2023-12-07T02:30:59;27.90;;;12.52;;
70199;SDS011;57587;55.688;37.600;2023-12-07T02:33:27;26.77;;;11.93;;
70199;SDS011;57587;55.688;37.600;2023-12-07T02:35:54;24.33;;;11.75;;
70199;SDS011;57587;55.688;37.600;2023-12-07T02:38:22;23.75;;;12.38;;
70199;SDS011;57587;55.688;37.600;2023-12-07T02:40:53;27.38;;;12.77;;
70199;SDS011;57587;55.688;37.600;2023-12-07T02:43:21;24.40;;;11.70;;
70199;SDS011;57587;55.688;37.600;2023-12-07T02:45:49;26.23;;;12.27;;
70199;SDS011;57587;55.688;37.600;2023-12-07T02:48:16;27.67;;;12.52;;
70199;SDS011;57587;55.688;37.600;2023-12-07T02:50:44;24.13;;;11.55;;
70199;SDS011;57587;55.688;37.600;2023-12-07T02:53:11;23.42;;;12.02;;
70199;SDS011;57587;55.688;37.600;2023-12-07T02:55:39;25.63;;;12.73;;
70199;SDS011;57587;55.688;37.600;2023-12-07T02:58:06;27.53;;;12.47;;
70199;SDS011;57587;55.688;37.600;2023-12-07T03:00:33;26.60;;;12.65;;
70199;SDS011;57587;55.688;37.600;2023-12-07T03:03:00;23.50;;;11.75;;
70199;SDS011;57587;55.688;37.600;2023-12-07T03:05:27;22.73;;;12.23;;
70199;SDS011;57587;55.688;37.600;2023-12-07T03:07:55;27.27;;;12.45;;
70199;SDS011;57587;55.688;37.600;2023-12-07T03:10:22;22.27;;;11.93;;
70199;SDS011;57587;55.688;37.600;2023-12-07T03:12:49;25.85;;;12.18;;
70199;SDS011;57587;55.688;37.600;2023-12-07T03:15:16;21.42;;;11.35;;
70199;SDS011;57587;55.688;37.600;2023-12-07T03:17:44;24.55;;;12.30;;
70199;SDS011;57587;55.688;37.600;2023-12-07T03:20:12;21.67;;;12.15;;
70199;SDS011;57587;55.688;37.600;2023-12-07T03:22:39;26.60;;;10.83;;
70199;SDS011;57587;55.688;37.600;2023-12-07T03:25:06;19.33;;;10.45;;
70199;SDS011;57587;55.688;37.600;2023-12-07T03:27:34;20.60;;;12.18;;
70199;SDS011;57587;55.688;37.600;2023-12-07T03:30:01;24.17;;;10.70;;
70199;SDS011;57587;55.688;37.600;2023-12-07T03:32:30;19.48;;;11.32;;
70199;SDS011;57587;55.688;37.600;2023-12-07T03:34:57;25.13;;;11.47;;
70199;SDS011;57587;55.688;37.600;2023-12-07T03:37:24;24.17;;;10.90;;
70199;SDS011;57587;55.688;37.600;2023-12-07T03:39:51;27.23;;;12.32;;
70199;SDS011;57587;55.688;37.600;2023-12-07T03:42:19;18.15;;;10.52;;
70199;SDS011;57587;55.688;37.600;2023-12-07T03:45:06;18.75;;;10.27;;
70199;SDS011;57587;55.688;37.600;2023-12-07T03:47:33;23.40;;;10.93;;
70199;SDS011;57587;55.688;37.600;2023-12-07T03:50:00;20.75;;;11.93;;
70199;SDS011;57587;55.688;37.600;2023-12-07T03:52:29;18.92;;;9.65;;
70199;SDS011;57587;55.688;37.600;2023-12-07T03:54:56;28.25;;;11.73;;
70199;SDS011;57587;55.688;37.600;2023-12-07T03:57:23;23.73;;;12.52;;
70199;SDS011;57587;55.688;37.600;2023-12-07T03:59:50;22.60;;;10.73;;
70199;SDS011;57587;55.688;37.600;2023-12-07T04:02:19;21.75;;;10.77;;
70199;SDS011;57587;55.688;37.600;2023-12-07T04:04:46;24.70;;;11.40;;
70199;SDS011;57587;55.688;37.600;2023-12-07T04:07:13;21.23;;;10.98;;
70199;SDS011;57587;55.688;37.600;2023-12-07T04:09:40;22.77;;;11.02;;
70199;SDS011;57587;55.688;37.600;2023-12-07T04:12:08;22.10;;;11.07;;
70199;SDS011;57587;55.688;37.600;2023-12-07T04:14:37;20.73;;;10.70;;
70199;SDS011;57587;55.688;37.600;2023-12-07T04:17:05;23.55;;;10.88;;
70199;SDS011;57587;55.688;37.600;2023-12-07T04:19:32;23.63;;;10.40;;
70199;SDS011;57587;55.688;37.600;2023-12-07T04:21:59;27.33;;;9.77;;
70199;SDS011;57587;55.688;37.600;2023-12-07T04:24:26;17.90;;;10.50;;
70199;SDS011;57587;55.688;37.600;2023-12-07T04:26:54;20.35;;;9.13;;
70199;SDS011;57587;55.688;37.600;2023-12-07T04:29:21;19.88;;;10.63;;
70199;SDS011;57587;55.688;37.600;2023-12-07T04:31:48;20.35;;;9.98;;
70199;SDS011;57587;55.688;37.600;2023-12-07T04:34:16;22.05;;;10.15;;
70199;SDS011;57587;55.688;37.600;2023-12-07T04:36:43;22.90;;;10.57;;
70199;SDS011;57587;55.688;37.600;2023-12-07T04:39:11;18.67;;;10.40;;
70199;SDS011;57587;55.688;37.600;2023-12-07T04:41:39;22.42;;;10.73;;
70199;SDS011;57587;55.688;37.600;2023-12-07T04:44:06;25.15;;;10.10;;
70199;SDS011;57587;55.688;37.600;2023-12-07T04:46:33;21.30;;;10.40;;
70199;SDS011;57587;55.688;37.600;2023-12-07T04:49:02;23.60;;;10.57;;
70199;SDS011;57587;55.688;37.600;2023-12-07T04:51:30;23.38;;;11.50;;
70199;SDS011;57587;55.688;37.600;2023-12-07T04:53:57;21.38;;;11.55;;
70199;SDS011;57587;55.688;37.600;2023-12-07T04:56:39;21.63;;;10.45;;
70199;SDS011;57587;55.688;37.600;2023-12-07T04:59:07;20.25;;;11.35;;
70199;SDS011;57587;55.688;37.600;2023-12-07T05:01:36;23.47;;;12.00;;
70199;SDS011;57587;55.688;37.600;2023-12-07T05:04:04;16.83;;;9.45;;
70199;SDS011;57587;55.688;37.600;2023-12-07T05:06:31;23.25;;;11.55;;
70199;SDS011;57587;55.688;37.600;2023-12-07T05:08:59;22.45;;;10.82;;
70199;SDS011;57587;55.688;37.600;2023-12-07T05:11:26;24.98;;;12.05;;
70199;SDS011;57587;55.688;37.600;2023-12-07T05:13:53;23.40;;;11.37;;
70199;SDS011;57587;55.688;37.600;2023-12-07T05:16:20;21.15;;;10.77;;
70199;SDS011;57587;55.688;37.600;2023-12-07T05:18:48;24.95;;;12.38;;
70199;SDS011;57587;55.688;37.600;2023-12-07T05:21:15;20.25;;;10.32;;
70199;SDS011;57587;55.688;37.600;2023-12-07T05:23:42;17.95;;;10.60;;
70199;SDS011;57587;55.688;37.600;2023-12-07T05:26:11;21.97;;;12.00;;
70199;SDS011;57587;55.688;37.600;2023-12-07T05:28:39;20.40;;;10.60;;
70199;SDS011;57587;55.688;37.600;2023-12-07T05:31:06;22.67;;;11.65;;
70199;SDS011;57587;55.688;37.600;2023-12-07T05:33:33;24.75;;;12.07;;
70199;SDS011;57587;55.688;37.600;2023-12-07T05:36:01;22.13;;;11.57;;
70199;SDS011;57587;55.688;37.600;2023-12-07T05:38:30;22.30;;;11.13;;
70199;SDS011;57587;55.688;37.600;2023-12-07T05:40:57;24.00;;;11.73;;
70199;SDS011;57587;55.688;37.600;2023-12-07T05:43:24;22.40;;;11.77;;
70199;SDS011;57587;55.688;37.600;2023-12-07T05:45:52;24.88;;;11.75;;
70199;SDS011;57587;55.688;37.600;2023-12-07T05:48:19;22.60;;;11.30;;
70199;SDS011;57587;55.688;37.600;2023-12-07T05:50:47;26.63;;;12.20;;
70199;SDS011;57587;55.688;37.600;2023-12-07T05:53:14;22.38;;;11.40;;
70199;SDS011;57587;55.688;37.600;2023-12-07T05:55:41;18.27;;;10.88;;
70199;SDS011;57587;55.688;37.600;2023-12-07T05:58:08;26.92;;;12.63;;
70199;SDS011;57587;55.688;37.600;2023-12-07T06:00:36;20.65;;;10.90;;
70199;SDS011;57587;55.688;37.600;2023-12-07T06:03:04;19.30;;;11.40;;
70199;SDS011;57587;55.688;37.600;2023-12-07T06:05:32;26.85;;;11.48;;
70199;SDS011;57587;55.688;37.600;2023-12-07T06:07:59;25.90;;;12.70;;
70199;SDS011;57587;55.688;37.600;2023-12-07T06:10:26;23.17;;;10.95;;
70199;SDS011;57587;55.688;37.600;2023-12-07T06:12:53;23.25;;;11.18;;
70199;SDS011;57587;55.688;37.600;2023-12-07T06:15:22;22.80;;;12.03;;
70199;SDS011;57587;55.688;37.600;2023-12-07T06:17:49;24.92;;;10.68;;
70199;SDS011;57587;55.688;37.600;2023-12-07T06:20:16;20.52;;;11.93;;
70199;SDS011;57587;55.688;37.600;2023-12-07T06:22:43;19.50;;;9.50;;
70199;SDS011;57587;55.688;37.600;2023-12-07T06:25:11;28.90;;;12.02;;
70199;SDS011;57587;55.688;37.600;2023-12-07T06:27:38;22.27;;;11.87;;
70199;SDS011;57587;55.688;37.600;2023-12-07T06:30:05;19.88;;;8.20;;
70199;SDS011;57587;55.688;37.600;2023-12-07T06:32:33;22.00;;;11.20;;
70199;SDS011;57587;55.688;37.600;2023-12-07T06:35:00;20.45;;;9.77;;
70199;SDS011;57587;55.688;37.600;2023-12-07T06:37:29;12.57;;;7.38;;
70199;SDS011;57587;55.688;37.600;2023-12-07T06:39:56;25.23;;;11.07;;
70199;SDS011;57587;55.688;37.600;2023-12-07T06:42:23;20.45;;;10.52;;
70199;SDS011;57587;55.688;37.600;2023-12-07T06:44:50;19.63;;;10.57;;
70199;SDS011;57587;55.688;37.600;2023-12-07T06:47:18;18.15;;;8.38;;
70199;SDS011;57587;55.688;37.600;2023-12-07T06:49:45;22.15;;;10.35;;
70199;SDS011;57587;55.688;37.600;2023-12-07T06:52:18;24.47;;;11.23;;
70199;SDS011;57587;55.688;37.600;2023-12-07T06:54:46;19.45;;;12.07;;
70199;SDS011;57587;55.688;37.600;2023-12-07T06:57:13;23.90;;;9.70;;
70199;SDS011;57587;55.688;37.600;2023-12-07T06:59:40;29.85;;;11.23;;
70199;SDS011;57587;55.688;37.600;2023-12-07T07:02:07;30.30;;;12.18;;
70199;SDS011;57587;55.688;37.600;2023-12-07T07:04:35;27.17;;;11.63;;
70199;SDS011;57587;55.688;37.600;2023-12-07T07:07:02;19.23;;;10.48;;
70199;SDS011;57587;55.688;37.600;2023-12-07T07:09:29;21.10;;;10.95;;
70199;SDS011;57587;55.688;37.600;2023-12-07T07:11:56;21.15;;;11.25;;
70199;SDS011;57587;55.688;37.600;2023-12-07T07:14:24;18.88;;;9.15;;
70199;SDS011;57587;55.688;37.600;2023-12-07T07:17:02;17.47;;;10.07;;
70199;SDS011;57587;55.688;37.600;2023-12-07T07:19:53;21.63;;;10.75;;
70199;SDS011;57587;55.688;37.600;2023-12-07T07:22:22;24.50;;;13.05;;
70199;SDS011;57587;55.688;37.600;2023-12-07T07:24:49;20.98;;;11.15;;
70199;SDS011;57587;55.688;37.600;2023-12-07T07:27:16;24.27;;;11.02;;
70199;SDS011;57587;55.688;37.600;2023-12-07T07:29:43;20.00;;;10.87;;
70199;SDS011;57587;55.688;37.600;2023-12-07T07:32:11;22.20;;;12.20;;
70199;SDS011;57587;55.688;37.600;2023-12-07T07:34:38;27.85;;;12.35;;
70199;SDS011;57587;55.688;37.600;2023-12-07T07:37:06;20.35;;;10.48;;
70199;SDS011;57587;55.688;37.600;2023-12-07T07:39:36;21.33;;;11.70;;
70199;SDS011;57587;55.688;37.600;2023-12-07T07:42:03;23.47;;;12.90;;
70199;SDS011;57587;55.688;37.600;2023-12-07T07:44:31;16.65;;;10.88;;
70199;SDS011;57587;55.688;37.600;2023-12-07T07:46:58;25.33;;;12.20;;
70199;SDS011;57587;55.688;37.600;2023-12-07T07:49:25;27.08;;;12.82;;
70199;SDS011;57587;55.688;37.600;2023-12-07T07:51:52;20.75;;;11.50;;
70199;SDS011;57587;55.688;37.600;2023-12-07T07:54:20;22.90;;;11.37;;
70199;SDS011;57587;55.688;37.600;2023-12-07T07:56:47;22.27;;;11.50;;
70199;SDS011;57587;55.688;37.600;2023-12-07T07:59:14;20.90;;;12.38;;
70199;SDS011;57587;55.688;37.600;2023-12-07T08:01:42;24.65;;;12.85;;
70199;SDS011;57587;55.688;37.600;2023-12-07T08:04:09;20.13;;;12.10;;
70199;SDS011;57587;55.688;37.600;2023-12-07T08:06:37;26.57;;;12.77;;
70199;SDS011;57587;55.688;37.600;2023-12-07T08:09:04;25.17;;;12.85;;
70199;SDS011;57587;55.688;37.600;2023-12-07T08:11:31;21.58;;;12.52;;
70199;SDS011;57587;55.688;37.600;2023-12-07T08:14:00;22.20;;;12.18;;
70199;SDS011;57587;55.688;37.600;2023-12-07T08:16:27;33.13;;;12.82;;
70199;SDS011;57587;55.688;37.600;2023-12-07T08:18:54;23.40;;;11.83;;
70199;SDS011;57587;55.688;37.600;2023-12-07T08:21:22;22.88;;;12.55;;
70199;SDS011;57587;55.688;37.600;2023-12-07T08:23:56;26.33;;;12.18;;
70199;SDS011;57587;55.688;37.600;2023-12-07T08:26:23;21.70;;;11.65;;
70199;SDS011;57587;55.688;37.600;2023-12-07T08:28:50;23.75;;;12.10;;
70199;SDS011;57587;55.688;37.600;2023-12-07T08:31:21;21.00;;;12.97;;
70199;SDS011;57587;55.688;37.600;2023-12-07T08:33:51;23.70;;;12.20;;
70199;SDS011;57587;55.688;37.600;2023-12-07T08:36:18;26.38;;;11.95;;
70199;SDS011;57587;55.688;37.600;2023-12-07T08:38:45;22.45;;;12.45;;
70199;SDS011;57587;55.688;37.600;2023-12-07T08:41:13;51.42;;;15.50;;
70199;SDS011;57587;55.688;37.600;2023-12-07T08:43:40;147.77;;;25.90;;
70199;SDS011;57587;55.688;37.600;2023-12-07T08:46:08;54.10;;;16.27;;
70199;SDS011;57587;55.688;37.600;2023-12-07T08:48:38;34.13;;;13.30;;
70199;SDS011;57587;55.688;37.600;2023-12-07T08:51:09;23.52;;;13.38;;
70199;SDS011;57587;55.688;37.600;2023-12-07T08:53:37;27.48;;;13.13;;
70199;SDS011;57587;55.688;37.600;2023-12-07T08:56:05;23.90;;;12.70;;
70199;SDS011;57587;55.688;37.600;2023-12-07T08:58:32;25.73;;;12.10;;
70199;SDS011;57587;55.688;37.600;2023-12-07T09:01:00;29.63;;;12.45;;
70199;SDS011;57587;55.688;37.600;2023-12-07T09:03:27;26.25;;;12.95;;
70199;SDS011;57587;55.688;37.600;2023-12-07T09:05:59;21.95;;;11.05;;
70199;SDS011;57587;55.688;37.600;2023-12-07T09:08:27;22.07;;;10.00;;
70199;SDS011;57587;55.688;37.600;2023-12-07T09:10:54;28.98;;;13.15;;
70199;SDS011;57587;55.688;37.600;2023-12-07T09:13:22;27.73;;;12.88;;
70199;SDS011;57587;55.688;37.600;2023-12-07T09:15:49;25.25;;;12.45;;
70199;SDS011;57587;55.688;37.600;2023-12-07T09:18:16;31.95;;;13.23;;
70199;SDS011;57587;55.688;37.600;2023-12-07T09:20:44;18.80;;;11.00;;
70199;SDS011;57587;55.688;37.600;2023-12-07T09:23:13;24.67;;;12.82;;
70199;SDS011;57587;55.688;37.600;2023-12-07T09:25:43;27.70;;;12.35;;
70199;SDS011;57587;55.688;37.600;2023-12-07T09:28:11;30.38;;;13.93;;
70199;SDS011;57587;55.688;37.600;2023-12-07T09:30:38;30.73;;;14.88;;
70199;SDS011;57587;55.688;37.600;2023-12-07T09:33:06;25.43;;;12.93;;
70199;SDS011;57587;55.688;37.600;2023-12-07T09:35:33;30.02;;;13.00;;
70199;SDS011;57587;55.688;37.600;2023-12-07T09:38:01;29.30;;;13.65;;
70199;SDS011;57587;55.688;37.600;2023-12-07T09:40:29;32.25;;;13.95;;
70199;SDS011;57587;55.688;37.600;2023-12-07T09:42:57;32.03;;;13.65;;
70199;SDS011;57587;55.688;37.600;2023-12-07T09:45:24;27.73;;;14.33;;
70199;SDS011;57587;55.688;37.600;2023-12-07T09:47:54;34.65;;;14.57;;
70199;SDS011;57587;55.688;37.600;2023-12-07T09:50:23;29.67;;;14.32;;
70199;SDS011;57587;55.688;37.600;2023-12-07T09:52:56;25.10;;;11.70;;
70199;SDS011;57587;55.688;37.600;2023-12-07T09:55:27;30.08;;;13.80;;
70199;SDS011;57587;55.688;37.600;2023-12-07T09:57:54;32.33;;;14.93;;
70199;SDS011;57587;55.688;37.600;2023-12-07T10:00:24;25.10;;;12.70;;
70199;SDS011;57587;55.688;37.600;2023-12-07T10:02:52;29.10;;;13.45;;
70199;SDS011;57587;55.688;37.600;2023-12-07T10:05:21;31.00;;;13.50;;
70199;SDS011;57587;55.688;37.600;2023-12-07T10:07:49;31.48;;;10.15;;
70199;SDS011;57587;55.688;37.600;2023-12-07T10:10:18;25.27;;;11.03;;
70199;SDS011;57587;55.688;37.600;2023-12-07T10:12:46;25.15;;;11.45;;
70199;SDS011;57587;55.688;37.600;2023-12-07T10:15:15;21.63;;;11.32;;
70199;SDS011;57587;55.688;37.600;2023-12-07T10:17:54;22.75;;;11.48;;
70199;SDS011;57587;55.688;37.600;2023-12-07T10:20:24;24.88;;;11.02;;
70199;SDS011;57587;55.688;37.600;2023-12-07T10:25:35;20.80;;;10.90;;
70199;SDS011;57587;55.688;37.600;2023-12-07T10:28:04;23.90;;;11.45;;
70199;SDS011;57587;55.688;37.600;2023-12-07T10:30:35;25.23;;;11.45;;
70199;SDS011;57587;55.688;37.600;2023-12-07T10:33:07;20.95;;;10.20;;
70199;SDS011;57587;55.688;37.600;2023-12-07T10:35:40;22.47;;;10.93;;
70199;SDS011;57587;55.688;37.600;2023-12-07T10:38:09;24.10;;;11.93;;
70199;SDS011;57587;55.688;37.600;2023-12-07T10:40:37;17.83;;;9.55;;
70199;SDS011;57587;55.688;37.600;2023-12-07T10:43:05;23.25;;;10.07;;
70199;SDS011;57587;55.688;37.600;2023-12-07T10:45:34;25.08;;;10.55;;
70199;SDS011;57587;55.688;37.600;2023-12-07T10:48:05;24.83;;;12.27;;
70199;SDS011;57587;55.688;37.600;2023-12-07T10:50:35;24.50;;;11.30;;
70199;SDS011;57587;55.688;37.600;2023-12-07T10:53:10;21.10;;;11.50;;
70199;SDS011;57587;55.688;37.600;2023-12-07T10:55:42;26.65;;;12.25;;
70199;SDS011;57587;55.688;37.600;2023-12-07T10:58:16;19.33;;;10.23;;
70199;SDS011;57587;55.688;37.600;2023-12-07T11:00:44;23.63;;;11.53;;
70199;SDS011;57587;55.688;37.600;2023-12-07T11:03:15;22.63;;;11.73;;
70199;SDS011;57587;55.688;37.600;2023-12-07T11:05:45;21.27;;;10.77;;
70199;SDS011;57587;55.688;37.600;2023-12-07T11:11:00;23.13;;;11.55;;
70199;SDS011;57587;55.688;37.600;2023-12-07T11:13:33;17.83;;;9.67;;
70199;SDS011;57587;55.688;37.600;2023-12-07T11:16:04;21.73;;;8.88;;
70199;SDS011;57587;55.688;37.600;2023-12-07T11:18:31;20.08;;;9.13;;
70199;SDS011;57587;55.688;37.600;2023-12-07T11:20:59;18.67;;;10.55;;
70199;SDS011;57587;55.688;37.600;2023-12-07T11:23:27;18.85;;;10.93;;
70199;SDS011;57587;55.688;37.600;2023-12-07T11:25:55;19.43;;;10.37;;
70199;SDS011;57587;55.688;37.600;2023-12-07T11:28:36;21.30;;;9.93;;
70199;SDS011;57587;55.688;37.600;2023-12-07T11:31:06;22.70;;;11.30;;
70199;SDS011;57587;55.688;37.600;2023-12-07T11:33:37;13.68;;;9.13;;
70199;SDS011;57587;55.688;37.600;2023-12-07T11:36:06;25.30;;;12.77;;
70199;SDS011;57587;55.688;37.600;2023-12-07T11:38:33;19.53;;;11.27;;
70199;SDS011;57587;55.688;37.600;2023-12-07T11:41:05;27.55;;;13.23;;
70199;SDS011;57587;55.688;37.600;2023-12-07T11:46:00;28.50;;;15.15;;
70199;SDS011;57587;55.688;37.600;2023-12-07T11:48:27;29.13;;;14.60;;
70199;SDS011;57587;55.688;37.600;2023-12-07T11:50:58;33.70;;;16.07;;
70199;SDS011;57587;55.688;37.600;2023-12-07T11:53:30;36.58;;;15.30;;
70199;SDS011;57587;55.688;37.600;2023-12-07T11:55:59;29.70;;;14.70;;
70199;SDS011;57587;55.688;37.600;2023-12-07T11:58:28;24.25;;;13.25;;
70199;SDS011;57587;55.688;37.600;2023-12-07T12:00:59;20.67;;;11.13;;
70199;SDS011;57587;55.688;37.600;2023-12-07T12:03:27;18.67;;;10.93;;
70199;SDS011;57587;55.688;37.600;2023-12-07T12:05:55;18.40;;;11.00;;
70199;SDS011;57587;55.688;37.600;2023-12-07T12:08:23;26.60;;;12.27;;
70199;SDS011;57587;55.688;37.600;2023-12-07T12:10:51;27.85;;;12.23;;
70199;SDS011;57587;55.688;37.600;2023-12-07T12:13:20;20.05;;;11.18;;
70199;SDS011;57587;55.688;37.600;2023-12-07T12:15:56;32.40;;;10.30;;
70199;SDS011;57587;55.688;37.600;2023-12-07T12:18:29;23.05;;;11.82;;
70199;SDS011;57587;55.688;37.600;2023-12-07T12:20:57;27.08;;;13.73;;
70199;SDS011;57587;55.688;37.600;2023-12-07T12:23:26;26.83;;;13.15;;
70199;SDS011;57587;55.688;37.600;2023-12-07T12:25:53;22.55;;;12.93;;
70199;SDS011;57587;55.688;37.600;2023-12-07T12:28:21;24.40;;;12.67;;
70199;SDS011;57587;55.688;37.600;2023-12-07T12:30:51;23.92;;;12.40;;
70199;SDS011;57587;55.688;37.600;2023-12-07T12:33:19;27.13;;;12.88;;
70199;SDS011;57587;55.688;37.600;2023-12-07T12:35:46;22.48;;;11.85;;
70199;SDS011;57587;55.688;37.600;2023-12-07T12:38:30;17.33;;;9.43;;
70199;SDS011;57587;55.688;37.600;2023-12-07T12:41:08;23.63;;;10.87;;
70199;SDS011;57587;55.688;37.600;2023-12-07T12:43:35;19.08;;;10.82;;
70199;SDS011;57587;55.688;37.600;2023-12-07T12:46:03;23.48;;;11.23;;
70199;SDS011;57587;55.688;37.600;2023-12-07T12:48:32;22.80;;;12.40;;
70199;SDS011;57587;55.688;37.600;2023-12-07T12:51:07;27.48;;;12.75;;
70199;SDS011;57587;55.688;37.600;2023-12-07T12:53:35;20.93;;;11.37;;
70199;SDS011;57587;55.688;37.600;2023-12-07T12:56:03;24.52;;;12.60;;
70199;SDS011;57587;55.688;37.600;2023-12-07T12:58:30;25.55;;;12.35;;
70199;SDS011;57587;55.688;37.600;2023-12-07T13:00:58;22.13;;;12.20;;
70199;SDS011;57587;55.688;37.600;2023-12-07T13:03:25;23.38;;;12.60;;
70199;SDS011;57587;55.688;37.600;2023-12-07T13:05:52;22.67;;;11.97;;
70199;SDS011;57587;55.688;37.600;2023-12-07T13:08:20;28.85;;;13.93;;
70199;SDS011;57587;55.688;37.600;2023-12-07T13:10:48;23.90;;;13.40;;
70199;SDS011;57587;55.688;37.600;2023-12-07T13:13:15;24.58;;;11.80;;
70199;SDS011;57587;55.688;37.600;2023-12-07T13:15:42;26.65;;;11.88;;
70199;SDS011;57587;55.688;37.600;2023-12-07T13:18:09;18.10;;;9.80;;
70199;SDS011;57587;55.688;37.600;2023-12-07T13:20:37;16.48;;;9.68;;
70199;SDS011;57587;55.688;37.600;2023-12-07T13:23:07;16.65;;;8.48;;
70199;SDS011;57587;55.688;37.600;2023-12-07T13:25:37;18.02;;;9.27;;
70199;SDS011;57587;55.688;37.600;2023-12-07T13:28:04;21.92;;;11.07;;
70199;SDS011;57587;55.688;37.600;2023-12-07T13:30:31;15.93;;;9.83;;
70199;SDS011;57587;55.688;37.600;2023-12-07T13:33:02;20.13;;;11.00;;
70199;SDS011;57587;55.688;37.600;2023-12-07T13:35:47;17.73;;;8.25;;
70199;SDS011;57587;55.688;37.600;2023-12-07T13:38:15;16.25;;;9.15;;
70199;SDS011;57587;55.688;37.600;2023-12-07T13:40:46;17.98;;;9.75;;
70199;SDS011;57587;55.688;37.600;2023-12-07T13:43:14;18.70;;;9.77;;
70199;SDS011;57587;55.688;37.600;2023-12-07T13:45:44;17.60;;;10.35;;
70199;SDS011;57587;55.688;37.600;2023-12-07T13:48:12;19.80;;;9.65;;
70199;SDS011;57587;55.688;37.600;2023-12-07T13:50:41;21.45;;;10.60;;
70199;SDS011;57587;55.688;37.600;2023-12-07T13:53:12;14.35;;;8.95;;
70199;SDS011;57587;55.688;37.600;2023-12-07T13:55:40;18.07;;;9.53;;
70199;SDS011;57587;55.688;37.600;2023-12-07T13:58:08;17.55;;;9.00;;
70199;SDS011;57587;55.688;37.600;2023-12-07T14:00:39;14.32;;;8.40;;
70199;SDS011;57587;55.688;37.600;2023-12-07T14:03:12;15.77;;;8.30;;
70199;SDS011;57587;55.688;37.600;2023-12-07T14:05:40;16.67;;;9.65;;
70199;SDS011;57587;55.688;37.600;2023-12-07T14:08:08;19.27;;;10.17;;
70199;SDS011;57587;55.688;37.600;2023-12-07T14:10:35;16.40;;;9.10;;
70199;SDS011;57587;55.688;37.600;2023-12-07T14:13:03;15.20;;;9.27;;
70199;SDS011;57587;55.688;37.600;2023-12-07T14:15:33;20.33;;;10.73;;
70199;SDS011;57587;55.688;37.600;2023-12-07T14:18:11;21.10;;;10.05;;
70199;SDS011;57587;55.688;37.600;2023-12-07T14:20:40;17.43;;;9.70;;
70199;SDS011;57587;55.688;37.600;2023-12-07T14:23:34;14.95;;;7.93;;
70199;SDS011;57587;55.688;37.600;2023-12-07T14:26:04;23.95;;;8.30;;
70199;SDS011;57587;55.688;37.600;2023-12-07T14:28:33;12.38;;;8.30;;